Mosherville, Pennsylvania
Current Conditions -  °F | °C
As of 4:53 AM on Saturday 20 Dec 2014 (Local Time) from KELM Reporting Station
Overcast Overcast  
Wind Chill: 29°   Ceiling: 2200
Heat Index: 29°   Visibility: 10mi
Dew Point: 21°   Wind: 3mph
Humidity: 72%   Direction: 340°NNW
Pressure: 30.21"   Gusts: NA
Location:  41.9519°N, 76.7808°W
Report Text: KELM 200953Z AUTO 34003KT 10SM OVC022 M02/M06 A3021 RMK AO2 SLP243 T10171061
Loading
Personal Weather Stations






























Interactive Weather Map New forecast layout! Learn more

10-Day Weather Forecast

Advertisements
Track Severe Weather on mobile